createdAt,value
2019-03-28T00:00:48.850Z,10.17
2019-03-28T00:01:48.880Z,10.16
2019-03-28T00:02:48.911Z,10.20
2019-03-28T00:03:48.941Z,10.16
2019-03-28T00:04:48.971Z,10.17
2019-03-28T00:05:49.006Z,10.22
2019-03-28T00:06:49.034Z,10.24
2019-03-28T00:07:49.062Z,10.24
2019-03-28T00:08:49.096Z,10.17
2019-03-28T00:09:49.126Z,10.16
2019-03-28T00:10:49.156Z,10.22
2019-03-28T00:11:49.324Z,10.17
2019-03-28T00:12:49.218Z,10.20
2019-03-28T00:13:49.253Z,10.17
2019-03-28T00:14:49.284Z,10.17
2019-03-28T00:15:49.308Z,10.24
2019-03-28T00:16:49.356Z,10.22
2019-03-28T00:17:49.376Z,10.24
2019-03-28T00:18:49.401Z,10.24
2019-03-28T00:19:49.430Z,10.24
2019-03-28T00:20:49.462Z,10.29
2019-03-28T00:21:49.495Z,10.26
2019-03-28T00:22:49.524Z,10.24
2019-03-28T00:23:49.554Z,10.26
2019-03-28T00:24:49.585Z,10.16
2019-03-28T00:25:49.617Z,10.17
2019-03-28T00:26:49.645Z,10.20
2019-03-28T00:27:49.682Z,10.16
2019-03-28T00:28:49.795Z,10.20
2019-03-28T00:29:49.739Z,10.24
2019-03-28T00:30:49.771Z,10.34
2019-03-28T00:31:49.803Z,10.18
2019-03-28T00:32:49.840Z,10.24
2019-03-28T00:33:49.861Z,10.22
2019-03-28T00:34:49.892Z,10.20
2019-03-28T00:35:49.924Z,10.26
2019-03-28T00:36:49.952Z,10.25
2019-03-28T00:37:49.988Z,10.24
2019-03-28T00:38:50.192Z,10.24
2019-03-28T00:39:50.044Z,10.22
2019-03-28T00:40:50.075Z,10.22
2019-03-28T00:41:50.110Z,10.25
2019-03-28T00:42:50.138Z,10.25
2019-03-28T00:43:50.168Z,10.26
2019-03-28T00:44:50.200Z,10.32
2019-03-28T00:45:50.242Z,10.29
2019-03-28T00:46:50.262Z,10.26
2019-03-28T00:47:50.291Z,10.20
2019-03-28T00:48:50.319Z,10.24
2019-03-28T00:49:50.354Z,10.22
2019-03-28T00:50:50.383Z,10.25
2019-03-28T00:51:50.470Z,10.18
2019-03-28T00:52:50.445Z,10.31
2019-03-28T00:53:50.476Z,10.22
2019-03-28T00:54:51.028Z,10.24
2019-03-28T00:55:50.537Z,10.25
2019-03-28T00:56:50.575Z,10.22
2019-03-28T00:57:50.600Z,10.25
2019-03-28T00:58:50.629Z,10.24
2019-03-28T00:59:50.659Z,10.24
2019-03-28T01:00:50.691Z,10.24
2019-03-28T01:01:50.722Z,10.25
2019-03-28T01:02:50.777Z,10.18
2019-03-28T01:03:50.783Z,10.25
2019-03-28T01:04:50.817Z,10.28
2019-03-28T01:05:50.843Z,10.26
2019-03-28T01:06:50.875Z,10.35
2019-03-28T01:07:50.903Z,10.35
2019-03-28T01:08:50.935Z,10.28
2019-03-28T01:09:50.966Z,10.31
2019-03-28T01:10:51.008Z,10.32
2019-03-28T01:11:51.026Z,10.28
2019-03-28T01:12:51.057Z,10.35
2019-03-28T01:13:51.089Z,10.36
2019-03-28T01:14:51.120Z,10.31
2019-03-28T01:15:51.149Z,10.36
2019-03-28T01:16:51.212Z,10.31
2019-03-28T01:17:51.210Z,10.34
2019-03-28T01:18:51.241Z,10.39
2019-03-28T01:19:51.273Z,10.34
2019-03-28T01:20:51.419Z,10.38
2019-03-28T01:21:51.339Z,10.29
2019-03-28T01:22:51.365Z,10.31
2019-03-28T01:23:51.399Z,10.34
2019-03-28T01:24:51.426Z,10.44
2019-03-28T01:25:51.457Z,10.39
2019-03-28T01:26:57.112Z,10.39
2019-03-28T01:27:51.517Z,10.35
2019-03-28T01:28:51.548Z,10.36
2019-03-28T01:29:51.579Z,10.35
2019-03-28T01:30:51.610Z,10.35
2019-03-28T01:31:51.639Z,10.35
2019-03-28T01:32:51.672Z,10.36
2019-03-28T01:33:51.704Z,10.35
2019-03-28T01:34:51.739Z,10.43
2019-03-28T01:35:51.764Z,10.43
2019-03-28T01:36:51.795Z,10.42
2019-03-28T01:37:51.831Z,10.42
2019-03-28T01:38:51.857Z,10.47
2019-03-28T01:39:51.886Z,10.35
2019-03-28T01:40:51.917Z,10.39
2019-03-28T01:41:51.948Z,10.36
2019-03-28T01:42:51.979Z,10.49
2019-03-28T01:43:52.337Z,10.36
2019-03-28T01:44:52.040Z,10.44
2019-03-28T01:45:52.070Z,10.47
2019-03-28T01:46:52.103Z,10.39
2019-03-28T01:47:52.132Z,10.44
2019-03-28T01:48:52.164Z,10.47
2019-03-28T01:49:52.194Z,10.46
2019-03-28T01:50:52.224Z,10.39
2019-03-28T01:51:52.253Z,10.44
2019-03-28T01:52:52.291Z,10.39
2019-03-28T01:53:52.316Z,10.42
2019-03-28T01:54:52.347Z,10.42
2019-03-28T01:55:52.378Z,10.39
2019-03-28T01:56:52.409Z,10.43
2019-03-28T01:57:52.439Z,10.46
2019-03-28T01:58:52.472Z,10.39
2019-03-28T01:59:52.502Z,10.39
2019-03-28T02:00:52.530Z,10.42
2019-03-28T02:01:52.563Z,10.46
2019-03-28T02:02:52.593Z,10.49
2019-03-28T02:03:52.628Z,10.43
2019-03-28T02:04:52.657Z,10.46
2019-03-28T02:05:52.685Z,10.43
2019-03-28T02:06:52.716Z,10.51
2019-03-28T02:07:52.748Z,10.44
2019-03-28T02:08:52.779Z,10.49
2019-03-28T02:09:52.809Z,10.43
2019-03-28T02:10:52.841Z,10.44
2019-03-28T02:11:52.885Z,10.39
2019-03-28T02:12:52.900Z,10.47
2019-03-28T02:13:52.932Z,10.43
2019-03-28T02:14:52.963Z,10.47
2019-03-28T02:15:52.994Z,10.49
2019-03-28T02:16:53.025Z,10.54
2019-03-28T02:17:53.055Z,10.39
2019-03-28T02:18:53.086Z,10.47
2019-03-28T02:19:53.116Z,10.46
2019-03-28T02:20:53.148Z,10.46
2019-03-28T02:21:53.279Z,10.38
2019-03-28T02:22:53.214Z,10.44
2019-03-28T02:23:53.243Z,10.46
2019-03-28T02:24:53.271Z,10.44
2019-03-28T02:25:53.303Z,10.44
2019-03-28T02:26:53.332Z,10.46
2019-03-28T02:27:53.364Z,10.38
2019-03-28T02:28:53.394Z,10.44
2019-03-28T02:29:53.461Z,10.46
2019-03-28T02:30:53.457Z,10.42
2019-03-28T02:31:53.493Z,10.46
2019-03-28T02:32:53.521Z,10.52
2019-03-28T02:33:53.550Z,10.46
2019-03-28T02:34:53.582Z,10.51
2019-03-28T02:35:53.611Z,10.49
2019-03-28T02:36:53.657Z,10.44
2019-03-28T02:37:53.672Z,10.46
2019-03-28T02:38:53.703Z,10.57
2019-03-28T02:39:53.738Z,10.54
2019-03-28T02:40:53.764Z,10.54
2019-03-28T02:41:53.815Z,10.58
2019-03-28T02:42:53.828Z,10.55
2019-03-28T02:43:53.860Z,10.54
2019-03-28T02:44:53.889Z,10.54
2019-03-28T02:45:53.994Z,10.55
2019-03-28T02:46:53.952Z,10.52
2019-03-28T02:47:53.995Z,10.52
2019-03-28T02:48:54.096Z,10.52
2019-03-28T02:49:54.044Z,10.57
2019-03-28T02:50:54.074Z,10.57
2019-03-28T02:51:54.105Z,10.55
2019-03-28T02:52:54.135Z,10.55
2019-03-28T02:53:54.167Z,10.58
2019-03-28T02:54:54.197Z,10.52
2019-03-28T02:55:54.227Z,10.54
2019-03-28T02:56:54.257Z,10.58
2019-03-28T02:57:54.289Z,10.57
2019-03-28T02:58:54.320Z,10.57
2019-03-28T02:59:54.822Z,10.57
2019-03-28T03:00:54.388Z,10.55
2019-03-28T03:01:54.414Z,10.57
2019-03-28T03:02:54.446Z,10.54
2019-03-28T03:03:54.476Z,10.51
2019-03-28T03:04:54.646Z,10.51
2019-03-28T03:05:54.534Z,10.46
2019-03-28T03:06:54.570Z,10.44
2019-03-28T03:07:54.597Z,10.43
2019-03-28T03:08:54.634Z,10.42
2019-03-28T03:09:54.660Z,10.44
2019-03-28T03:10:54.692Z,10.51
2019-03-28T03:11:54.720Z,10.51
2019-03-28T03:12:54.758Z,10.46
2019-03-28T03:13:54.786Z,10.55
2019-03-28T03:14:54.815Z,10.52
2019-03-28T03:15:54.844Z,10.54
2019-03-28T03:16:54.877Z,10.52
2019-03-28T03:17:54.911Z,10.57
2019-03-28T03:18:54.938Z,10.62
2019-03-28T03:19:54.975Z,10.52
2019-03-28T03:20:54.999Z,10.54
2019-03-28T03:21:55.031Z,10.60
2019-03-28T03:22:55.061Z,10.52
2019-03-28T03:23:55.092Z,10.52
2019-03-28T03:24:55.125Z,10.58
2019-03-28T03:25:55.153Z,10.54
2019-03-28T03:26:55.187Z,10.55
2019-03-28T03:27:58.446Z,10.54
2019-03-28T03:28:55.249Z,10.58
2019-03-28T03:29:55.280Z,10.58
2019-03-28T03:30:55.308Z,10.54
2019-03-28T03:31:55.351Z,10.51
2019-03-28T03:32:55.376Z,10.55
2019-03-28T03:33:55.402Z,10.54
2019-03-28T03:34:55.444Z,10.51
2019-03-28T03:35:55.463Z,10.62
2019-03-28T03:36:55.503Z,10.51
2019-03-28T03:37:56.024Z,10.49
2019-03-28T03:38:55.557Z,10.57
2019-03-28T03:39:55.583Z,10.58
2019-03-28T03:40:55.618Z,10.49
2019-03-28T03:41:55.650Z,10.51
2019-03-28T03:42:56.766Z,10.55
2019-03-28T03:43:55.708Z,10.55
2019-03-28T03:44:55.742Z,10.55
2019-03-28T03:45:55.776Z,10.51
2019-03-28T03:46:55.802Z,10.52
2019-03-28T03:47:55.832Z,10.51
2019-03-28T03:48:55.866Z,10.55
2019-03-28T03:49:56.491Z,10.55
2019-03-28T03:50:55.926Z,10.55
2019-03-28T03:51:55.961Z,10.47
2019-03-28T03:52:55.987Z,10.55
2019-03-28T03:53:56.019Z,10.52
2019-03-28T03:54:56.050Z,10.52
2019-03-28T03:55:56.081Z,10.58
2019-03-28T03:56:56.112Z,10.54
2019-03-28T03:58:13.294Z,10.57
2019-03-28T03:58:56.172Z,10.55
2019-03-28T03:59:56.203Z,10.60
2019-03-28T04:00:56.238Z,10.52
2019-03-28T04:01:56.266Z,10.57
2019-03-28T04:02:56.297Z,10.55
2019-03-28T04:03:56.327Z,10.52
2019-03-28T04:04:57.000Z,10.57
2019-03-28T04:05:56.411Z,10.57
2019-03-28T04:06:56.420Z,10.55
2019-03-28T04:07:56.453Z,10.57
2019-03-28T04:08:56.482Z,10.52
2019-03-28T04:09:56.513Z,10.57
2019-03-28T04:10:56.547Z,10.52
2019-03-28T04:11:56.575Z,10.54
2019-03-28T04:12:56.606Z,10.58
2019-03-28T04:13:56.639Z,10.52
2019-03-28T04:14:56.671Z,10.57
2019-03-28T04:15:56.698Z,10.55
2019-03-28T04:16:56.727Z,10.55
2019-03-28T04:17:56.760Z,10.55
2019-03-28T04:18:56.791Z,10.51
2019-03-28T04:19:56.831Z,10.55
2019-03-28T04:20:56.854Z,10.55
2019-03-28T04:21:56.883Z,10.52
2019-03-28T04:22:56.914Z,10.52
2019-03-28T04:23:56.948Z,10.57
2019-03-28T04:24:56.977Z,10.55
2019-03-28T04:25:57.006Z,10.44
2019-03-28T04:26:57.038Z,10.54
2019-03-28T04:27:57.068Z,10.49
2019-03-28T04:28:57.100Z,10.51
2019-03-28T04:29:57.129Z,10.54
2019-03-28T04:30:57.160Z,10.57
2019-03-28T04:31:57.198Z,10.49
2019-03-28T04:32:57.223Z,10.57
2019-03-28T04:33:57.253Z,10.51
2019-03-28T04:34:57.286Z,10.52
2019-03-28T04:35:57.314Z,10.55
2019-03-28T04:36:57.348Z,10.58
2019-03-28T04:37:57.384Z,10.55
2019-03-28T04:38:57.408Z,10.49
2019-03-28T04:39:57.438Z,10.51
2019-03-28T04:40:57.469Z,10.57
2019-03-28T04:41:57.504Z,10.55
2019-03-28T04:42:57.532Z,10.52
2019-03-28T04:43:57.567Z,10.54
2019-03-28T04:44:57.593Z,10.46
2019-03-28T04:45:57.625Z,10.44
2019-03-28T04:46:57.657Z,10.46
2019-03-28T04:47:57.685Z,10.49
2019-03-28T04:48:57.717Z,10.47
2019-03-28T04:49:57.750Z,10.46
2019-03-28T04:50:57.778Z,10.51
2019-03-28T04:51:57.809Z,10.51
2019-03-28T04:52:57.840Z,10.46
2019-03-28T04:53:57.872Z,10.54
2019-03-28T04:54:57.903Z,10.55
2019-03-28T04:55:57.933Z,10.58
2019-03-28T04:56:57.963Z,10.52
2019-03-28T04:57:57.995Z,10.57
2019-03-28T04:58:58.029Z,10.58
2019-03-28T04:59:58.056Z,10.49
2019-03-28T05:00:58.089Z,10.62
2019-03-28T05:02:03.015Z,10.57
2019-03-28T05:02:58.151Z,10.57
2019-03-28T05:03:58.179Z,10.52
2019-03-28T05:04:58.210Z,10.55
2019-03-28T05:05:58.482Z,10.52
2019-03-28T05:06:58.273Z,10.55
2019-03-28T05:07:58.303Z,10.57
2019-03-28T05:08:58.338Z,10.51
2019-03-28T05:09:58.368Z,10.54
2019-03-28T05:10:58.399Z,10.54
2019-03-28T05:11:58.460Z,10.57
2019-03-28T05:12:58.458Z,10.52
2019-03-28T05:13:58.489Z,10.57
2019-03-28T05:14:58.522Z,10.57
2019-03-28T05:15:58.552Z,10.54
2019-03-28T05:16:58.582Z,10.58
2019-03-28T05:17:58.612Z,10.55
2019-03-28T05:18:58.644Z,10.52
2019-03-28T05:19:58.677Z,10.54
2019-03-28T05:20:58.708Z,10.51
2019-03-28T05:21:58.737Z,10.57
2019-03-28T05:22:58.769Z,10.60
2019-03-28T05:23:58.799Z,10.57
2019-03-28T05:24:58.893Z,10.52
2019-03-28T05:25:58.866Z,10.52
2019-03-28T05:26:58.890Z,10.57
2019-03-28T05:27:59.379Z,10.60
2019-03-28T05:28:59.489Z,10.55
2019-03-28T05:29:58.984Z,10.55
2019-03-28T05:30:59.021Z,10.57
2019-03-28T05:31:59.045Z,10.55
2019-03-28T05:32:59.076Z,10.57
2019-03-28T05:33:59.107Z,10.52
2019-03-28T05:34:59.137Z,10.57
2019-03-28T05:35:59.170Z,10.62
2019-03-28T05:36:59.200Z,10.57
2019-03-28T05:37:59.235Z,10.58
2019-03-28T05:38:59.262Z,10.57
2019-03-28T05:39:59.290Z,10.52
2019-03-28T05:40:59.395Z,10.57
2019-03-28T05:41:59.357Z,10.54
2019-03-28T05:42:59.386Z,10.55
2019-03-28T05:43:59.415Z,10.52
2019-03-28T05:44:59.447Z,10.55
2019-03-28T05:45:59.490Z,10.58
2019-03-28T05:46:59.509Z,10.55
2019-03-28T05:48:00.443Z,10.57
2019-03-28T05:48:59.571Z,10.60
2019-03-28T05:49:59.603Z,10.62
2019-03-28T05:50:59.634Z,10.54
2019-03-28T05:51:59.662Z,10.52
2019-03-28T05:52:59.694Z,10.54
2019-03-28T05:53:59.726Z,10.62
2019-03-28T05:54:59.756Z,10.54
2019-03-28T05:55:59.788Z,10.69
2019-03-28T05:56:59.817Z,10.60
2019-03-28T05:57:59.850Z,10.55
2019-03-28T05:59:10.310Z,10.58
2019-03-28T05:59:59.910Z,10.60
2019-03-28T06:00:59.944Z,10.69
2019-03-28T06:01:59.992Z,10.69
2019-03-28T06:03:00.051Z,10.62
2019-03-28T06:04:00.071Z,10.60
2019-03-28T06:05:00.529Z,10.55
2019-03-28T06:06:00.139Z,10.55
2019-03-28T06:07:00.167Z,10.58
2019-03-28T06:08:00.189Z,10.62
2019-03-28T06:09:00.189Z,10.55
2019-03-28T06:10:00.416Z,10.57
2019-03-28T06:11:00.253Z,10.62
2019-03-28T06:12:00.280Z,10.65
2019-03-28T06:13:00.313Z,10.52
2019-03-28T06:14:00.404Z,10.68
2019-03-28T06:15:00.417Z,10.54
2019-03-28T06:16:00.406Z,10.73
2019-03-28T06:17:00.436Z,10.54
2019-03-28T06:18:00.468Z,10.69
2019-03-28T06:19:00.501Z,10.57
2019-03-28T06:20:00.529Z,10.62
2019-03-28T06:21:00.560Z,10.60
2019-03-28T06:22:00.590Z,10.70
2019-03-28T06:23:00.622Z,10.68
2019-03-28T06:24:00.654Z,10.70
2019-03-28T06:25:00.685Z,10.63
2019-03-28T06:26:00.717Z,10.63
2019-03-28T06:27:00.747Z,10.69
2019-03-28T06:28:00.778Z,10.65
2019-03-28T06:29:00.807Z,10.66
2019-03-28T06:30:02.209Z,10.69
2019-03-28T06:31:00.872Z,10.57
2019-03-28T06:32:00.902Z,10.63
2019-03-28T06:33:00.931Z,10.66
2019-03-28T06:34:00.962Z,10.65
2019-03-28T06:35:00.994Z,10.62
2019-03-28T06:36:02.303Z,10.60
2019-03-28T06:37:01.055Z,10.58
2019-03-28T06:38:01.089Z,10.60
2019-03-28T06:39:01.120Z,10.65
2019-03-28T06:40:01.150Z,10.70
2019-03-28T06:41:01.178Z,10.73
2019-03-28T06:42:01.215Z,10.65
2019-03-28T06:43:01.270Z,10.70
2019-03-28T06:44:01.275Z,10.68
2019-03-28T06:45:03.645Z,10.80
2019-03-28T06:46:01.336Z,10.75
2019-03-28T06:47:01.368Z,10.76
2019-03-28T06:48:01.400Z,10.86
2019-03-28T06:49:01.432Z,10.80
2019-03-28T06:50:01.459Z,10.83
2019-03-28T06:51:01.491Z,10.81
2019-03-28T06:52:01.605Z,10.80
2019-03-28T06:53:01.553Z,10.90
2019-03-28T06:54:01.581Z,10.91
2019-03-28T06:55:01.626Z,10.87
2019-03-28T06:56:01.644Z,10.95
2019-03-28T06:57:01.676Z,10.95
2019-03-28T06:58:01.706Z,10.98
2019-03-28T06:59:01.753Z,11.03
2019-03-28T07:00:01.779Z,11.01
2019-03-28T07:01:01.803Z,11.05
2019-03-28T07:02:01.833Z,11.05
2019-03-28T07:03:01.863Z,11.08
2019-03-28T07:04:01.894Z,11.08
2019-03-28T07:05:01.925Z,11.12
2019-03-28T07:06:01.960Z,11.17
2019-03-28T07:07:01.986Z,11.13
2019-03-28T07:08:02.017Z,11.13
2019-03-28T07:09:02.049Z,11.23
2019-03-28T07:10:02.571Z,11.19
2019-03-28T07:11:02.578Z,11.20
2019-03-28T07:12:02.147Z,11.17
2019-03-28T07:13:02.182Z,11.20
2019-03-28T07:14:02.455Z,11.24
2019-03-28T07:15:02.238Z,11.24
2019-03-28T07:16:02.268Z,11.21
2019-03-28T07:17:02.297Z,11.23
2019-03-28T07:18:02.332Z,11.27
2019-03-28T07:19:02.362Z,11.26
2019-03-28T07:20:02.391Z,11.24
2019-03-28T07:21:02.425Z,11.24
2019-03-28T07:22:02.456Z,11.20
2019-03-28T07:23:02.487Z,11.33
2019-03-28T07:24:02.517Z,11.33
2019-03-28T07:25:02.548Z,11.33
2019-03-28T07:26:02.583Z,11.33
2019-03-28T07:27:02.612Z,11.30
2019-03-28T07:28:02.642Z,11.33
2019-03-28T07:29:02.673Z,11.30
2019-03-28T07:30:02.704Z,11.36
2019-03-28T07:31:02.737Z,11.35
2019-03-28T07:32:02.768Z,11.41
2019-03-28T07:33:02.799Z,11.42
2019-03-28T07:34:02.829Z,11.38
2019-03-28T07:35:02.863Z,11.39
2019-03-28T07:36:02.892Z,11.41
2019-03-28T07:37:02.923Z,11.45
2019-03-28T07:38:02.956Z,11.36
2019-03-28T07:39:02.988Z,11.35
2019-03-28T07:40:03.019Z,11.35
2019-03-28T07:41:03.047Z,11.41
2019-03-28T07:42:03.082Z,11.44
2019-03-28T07:43:03.115Z,11.44
2019-03-28T07:44:03.143Z,11.51
2019-03-28T07:45:03.176Z,11.54
2019-03-28T07:46:03.205Z,11.54
2019-03-28T07:47:03.340Z,11.48
2019-03-28T07:48:03.266Z,11.45
2019-03-28T07:49:03.301Z,11.53
2019-03-28T07:50:03.331Z,11.62
2019-03-28T07:51:03.363Z,11.53
2019-03-28T07:52:03.393Z,11.59
2019-03-28T07:53:03.425Z,11.63
2019-03-28T07:54:03.458Z,11.51
2019-03-28T07:55:03.516Z,11.63
2019-03-28T07:56:03.525Z,11.51
2019-03-28T07:57:03.554Z,11.63
2019-03-28T07:58:03.581Z,11.69
2019-03-28T07:59:03.613Z,11.64
2019-03-28T08:00:05.191Z,11.70
2019-03-28T08:01:03.678Z,11.67
2019-03-28T08:02:03.708Z,11.66
2019-03-28T08:03:03.739Z,11.69
2019-03-28T08:04:03.772Z,11.78
2019-03-28T08:05:03.802Z,11.75
2019-03-28T08:06:03.832Z,11.78
2019-03-28T08:07:03.867Z,11.75
2019-03-28T08:08:03.896Z,11.87
2019-03-28T08:09:03.994Z,11.81
2019-03-28T08:10:03.957Z,11.79
2019-03-28T08:11:03.991Z,11.94
2019-03-28T08:12:04.722Z,11.93
2019-03-28T08:13:04.060Z,11.94
2019-03-28T08:14:04.087Z,11.85
2019-03-28T08:15:04.117Z,11.87
2019-03-28T08:16:04.149Z,11.98
2019-03-28T08:17:04.183Z,11.96
2019-03-28T08:18:04.217Z,11.98
2019-03-28T08:19:07.712Z,11.96
2019-03-28T08:20:04.272Z,11.97
2019-03-28T08:21:04.310Z,12.01
2019-03-28T08:22:04.339Z,11.97
2019-03-28T08:23:04.371Z,12.01
2019-03-28T08:24:04.403Z,12.08
2019-03-28T08:25:07.408Z,12.04
2019-03-28T08:26:04.519Z,11.98
2019-03-28T08:27:04.496Z,12.11
2019-03-28T08:28:04.542Z,12.05
2019-03-28T08:29:04.559Z,12.04
2019-03-28T08:30:17.548Z,12.05
2019-03-28T08:31:04.627Z,12.04
2019-03-28T08:32:04.655Z,12.00
2019-03-28T08:33:04.687Z,12.07
2019-03-28T08:34:04.718Z,12.07
2019-03-28T08:35:04.749Z,11.97
2019-03-28T08:36:04.782Z,12.07
2019-03-28T08:37:04.814Z,12.08
2019-03-28T08:38:04.844Z,12.08
2019-03-28T08:39:04.886Z,12.07
2019-03-28T08:40:04.908Z,12.05
2019-03-28T08:41:07.130Z,12.04
2019-03-28T08:42:04.971Z,12.08
2019-03-28T08:43:05.007Z,12.12
2019-03-28T08:44:07.311Z,12.15
2019-03-28T08:45:05.069Z,12.13
2019-03-28T08:46:08.521Z,12.16
2019-03-28T08:47:06.295Z,12.11
2019-03-28T08:48:05.164Z,12.11
2019-03-28T08:49:05.194Z,12.21
2019-03-28T08:50:05.231Z,12.07
2019-03-28T08:51:05.258Z,12.15
2019-03-28T08:52:05.294Z,12.11
2019-03-28T08:53:05.322Z,12.11
2019-03-28T08:54:05.958Z,12.11
2019-03-28T08:55:05.393Z,12.12
2019-03-28T08:56:05.418Z,12.12
2019-03-28T08:57:05.449Z,12.16
2019-03-28T08:58:05.479Z,12.18
2019-03-28T08:59:05.537Z,12.22
2019-03-28T09:00:05.544Z,12.12
2019-03-28T09:01:05.907Z,12.19
2019-03-28T09:02:05.647Z,12.16
2019-03-28T09:03:05.641Z,12.18
2019-03-28T09:04:05.677Z,12.22
2019-03-28T09:05:05.703Z,12.23
2019-03-28T09:06:05.762Z,12.25
2019-03-28T09:07:05.775Z,12.23
2019-03-28T09:08:05.801Z,12.15
2019-03-28T09:09:05.831Z,12.23
2019-03-28T09:10:05.863Z,12.25
2019-03-28T09:11:05.895Z,12.33
2019-03-28T09:12:05.929Z,12.23
2019-03-28T09:13:05.960Z,12.23
2019-03-28T09:14:05.996Z,12.25
2019-03-28T09:15:06.023Z,12.18
2019-03-28T09:16:06.076Z,12.21
2019-03-28T09:17:06.087Z,12.25
2019-03-28T09:18:06.120Z,12.23
2019-03-28T09:19:06.150Z,12.25
2019-03-28T09:20:06.200Z,12.22
2019-03-28T09:21:06.214Z,12.18
2019-03-28T09:22:06.246Z,12.23
2019-03-28T09:23:06.277Z,12.21
2019-03-28T09:24:06.308Z,12.26
2019-03-28T09:25:06.341Z,12.25
2019-03-28T09:26:06.392Z,12.18
2019-03-28T09:27:06.406Z,12.18
2019-03-28T09:28:06.438Z,12.15
2019-03-28T09:29:06.472Z,12.16
2019-03-28T09:30:06.502Z,12.23
2019-03-28T09:31:19.261Z,12.13
2019-03-28T09:32:06.564Z,12.23
2019-03-28T09:33:06.598Z,12.23
2019-03-28T09:34:06.631Z,12.21
2019-03-28T09:35:06.662Z,12.18
2019-03-28T09:36:06.692Z,12.23
2019-03-28T09:37:06.733Z,12.29
2019-03-28T09:38:06.766Z,12.18
2019-03-28T09:39:06.787Z,12.22
2019-03-28T09:40:06.821Z,12.19
2019-03-28T09:41:06.854Z,12.23
2019-03-28T09:42:06.933Z,12.23
2019-03-28T09:43:06.921Z,12.16
2019-03-28T09:44:06.948Z,12.18
2019-03-28T09:45:06.982Z,12.11
2019-03-28T09:46:07.011Z,12.13
2019-03-28T09:47:07.046Z,12.07
2019-03-28T09:48:07.081Z,12.11
2019-03-28T09:49:07.112Z,12.08
2019-03-28T09:50:07.140Z,12.01
2019-03-28T09:51:07.171Z,12.04
2019-03-28T09:52:07.205Z,12.04
2019-03-28T09:53:07.234Z,12.04
2019-03-28T09:54:07.268Z,12.03
2019-03-28T09:55:07.299Z,12.11
2019-03-28T09:56:07.503Z,12.15
2019-03-28T09:57:07.361Z,12.13
2019-03-28T09:58:07.408Z,12.18
2019-03-28T09:59:07.426Z,12.15
2019-03-28T10:00:07.456Z,12.22
2019-03-28T10:01:07.490Z,12.22
2019-03-28T10:02:07.578Z,12.22
2019-03-28T10:03:07.554Z,12.21
2019-03-28T10:04:07.586Z,12.25
2019-03-28T10:05:07.628Z,12.22
2019-03-28T10:06:07.650Z,12.22
2019-03-28T10:07:07.682Z,12.19
2019-03-28T10:08:07.719Z,12.25
2019-03-28T10:09:07.743Z,12.22
2019-03-28T10:10:09.329Z,12.22
2019-03-28T10:11:07.811Z,12.23
2019-03-28T10:12:07.840Z,12.21
2019-03-28T10:13:07.872Z,12.26
2019-03-28T10:14:07.930Z,12.19
2019-03-28T10:15:07.937Z,12.29
2019-03-28T10:16:07.968Z,12.22
2019-03-28T10:17:07.999Z,12.29
2019-03-28T10:18:08.032Z,12.22
2019-03-28T10:19:08.093Z,12.26
2019-03-28T10:20:08.998Z,12.31
2019-03-28T10:21:08.132Z,12.36
2019-03-28T10:22:08.237Z,12.21
2019-03-28T10:23:08.195Z,12.34
2019-03-28T10:24:08.224Z,12.40
2019-03-28T10:25:08.255Z,12.30
2019-03-28T10:26:08.288Z,12.26
2019-03-28T10:27:08.320Z,12.33
2019-03-28T10:28:08.355Z,12.38
2019-03-28T10:29:08.385Z,12.41
2019-03-28T10:30:08.417Z,12.29
2019-03-28T10:31:16.227Z,12.36
2019-03-28T10:32:08.485Z,12.43
2019-03-28T10:33:08.509Z,12.34
2019-03-28T10:34:08.543Z,12.41
2019-03-28T10:35:08.576Z,12.44
2019-03-28T10:36:08.605Z,12.33
2019-03-28T10:37:08.638Z,12.29
2019-03-28T10:38:08.672Z,12.34
2019-03-28T10:39:08.702Z,12.44
2019-03-28T10:40:08.734Z,12.36
2019-03-28T10:41:08.767Z,12.37
2019-03-28T10:42:08.798Z,12.33
2019-03-28T10:43:08.833Z,12.33
2019-03-28T10:44:08.861Z,12.33
2019-03-28T10:45:08.901Z,12.23
2019-03-28T10:46:08.925Z,12.25
2019-03-28T10:47:08.959Z,12.34
2019-03-28T10:48:08.992Z,12.40
2019-03-28T10:49:09.059Z,12.36
2019-03-28T10:50:09.076Z,12.31
2019-03-28T10:51:09.086Z,12.30
2019-03-28T10:52:11.825Z,12.41
2019-03-28T10:53:09.149Z,12.41
2019-03-28T10:54:19.450Z,12.33
2019-03-28T10:55:09.215Z,12.31
2019-03-28T10:56:20.950Z,12.44
2019-03-28T10:57:15.479Z,12.40
2019-03-28T10:58:18.221Z,12.44
2019-03-28T10:59:22.345Z,12.37
2019-03-28T11:00:23.168Z,12.43
2019-03-28T11:01:09.404Z,12.37
2019-03-28T11:02:09.440Z,12.40
2019-03-28T11:03:09.469Z,12.41
2019-03-28T11:04:09.501Z,12.38
2019-03-28T11:05:09.534Z,12.41
2019-03-28T11:06:09.568Z,12.37
2019-03-28T11:07:09.599Z,12.40
2019-03-28T11:08:09.631Z,12.48
2019-03-28T11:09:09.664Z,12.41
2019-03-28T11:10:09.695Z,12.43
2019-03-28T11:11:09.783Z,12.41
2019-03-28T11:12:09.757Z,12.44
2019-03-28T11:13:09.988Z,12.41
2019-03-28T11:14:09.822Z,12.37
2019-03-28T11:15:09.855Z,12.38
2019-03-28T11:16:09.888Z,12.38
2019-03-28T11:17:09.919Z,12.43
2019-03-28T11:18:09.951Z,12.41
2019-03-28T11:19:09.985Z,12.43
2019-03-28T11:20:10.063Z,12.40
2019-03-28T11:21:10.047Z,12.41
2019-03-28T11:22:10.079Z,12.41
2019-03-28T11:23:10.113Z,12.38
2019-03-28T11:24:10.142Z,12.49
2019-03-28T11:25:10.179Z,12.43
2019-03-28T11:26:10.210Z,12.55
2019-03-28T11:27:10.241Z,12.41
2019-03-28T11:28:10.280Z,12.54
2019-03-28T11:29:10.303Z,12.44
2019-03-28T11:30:10.335Z,12.49
2019-03-28T11:31:10.367Z,12.58
2019-03-28T11:32:10.402Z,12.59
2019-03-28T11:33:10.432Z,12.54
2019-03-28T11:34:10.463Z,12.58
2019-03-28T11:35:10.495Z,12.54
2019-03-28T11:36:10.527Z,12.56
2019-03-28T11:37:24.983Z,12.62
2019-03-28T11:38:10.592Z,12.59
2019-03-28T11:39:10.624Z,12.66
2019-03-28T11:40:10.655Z,12.59
2019-03-28T11:41:10.689Z,12.69
2019-03-28T11:42:10.745Z,12.70
2019-03-28T11:43:10.754Z,12.69
2019-03-28T11:44:11.537Z,12.70
2019-03-28T11:45:10.817Z,12.77
2019-03-28T11:46:10.849Z,12.71
2019-03-28T11:47:10.881Z,12.74
2019-03-28T11:48:10.913Z,12.76
2019-03-28T11:49:10.945Z,12.76
2019-03-28T11:50:10.977Z,12.81
2019-03-28T11:51:11.011Z,12.70
2019-03-28T11:52:11.045Z,12.79
2019-03-28T11:53:11.076Z,12.85
2019-03-28T11:54:11.105Z,12.73
2019-03-28T11:55:11.142Z,12.84
2019-03-28T11:56:11.185Z,12.77
2019-03-28T11:57:11.205Z,12.70
2019-03-28T11:58:11.635Z,12.89
2019-03-28T11:59:11.267Z,12.85
2019-03-28T12:00:11.299Z,12.80
2019-03-28T12:01:11.331Z,12.88
2019-03-28T12:02:19.734Z,12.89
2019-03-28T12:03:11.397Z,12.92
2019-03-28T12:04:11.429Z,12.94
2019-03-28T12:05:11.473Z,12.95
2019-03-28T12:06:11.494Z,12.94
2019-03-28T12:07:11.529Z,12.94
2019-03-28T12:08:11.555Z,12.96
2019-03-28T12:09:12.238Z,12.96
2019-03-28T12:10:11.623Z,12.92
2019-03-28T12:11:11.655Z,12.95
2019-03-28T12:12:11.690Z,12.96
2019-03-28T12:13:11.721Z,12.92
2019-03-28T12:14:11.753Z,12.94
2019-03-28T12:15:11.784Z,12.95
2019-03-28T12:16:11.816Z,12.94
2019-03-28T12:17:11.847Z,13.01
2019-03-28T12:18:11.892Z,12.95
2019-03-28T12:19:11.914Z,12.89
2019-03-28T12:20:11.950Z,12.94
2019-03-28T12:21:11.978Z,12.92
2019-03-28T12:22:12.010Z,12.94
2019-03-28T12:23:12.042Z,12.91
2019-03-28T12:24:12.079Z,12.95
2019-03-28T12:25:12.106Z,12.92
2019-03-28T12:26:12.139Z,12.87
2019-03-28T12:27:12.173Z,12.94
2019-03-28T12:28:12.243Z,12.89
2019-03-28T12:29:12.237Z,12.84
2019-03-28T12:30:15.607Z,12.94
2019-03-28T12:31:12.303Z,12.89
2019-03-28T12:32:14.309Z,12.76
2019-03-28T12:33:12.367Z,12.89
2019-03-28T12:34:12.396Z,12.87
2019-03-28T12:35:12.432Z,12.77
2019-03-28T12:36:12.462Z,12.84
2019-03-28T12:37:12.497Z,12.84
2019-03-28T12:38:12.527Z,12.81
2019-03-28T12:39:15.458Z,12.73
2019-03-28T12:40:12.590Z,12.76
2019-03-28T12:41:12.625Z,12.76
2019-03-28T12:42:12.657Z,12.71
2019-03-28T12:43:12.690Z,12.70
2019-03-28T12:44:12.726Z,12.69
2019-03-28T12:45:12.754Z,12.62
2019-03-28T12:46:12.784Z,12.79
2019-03-28T12:47:12.819Z,12.63
2019-03-28T12:48:12.848Z,12.63
2019-03-28T12:49:12.882Z,12.70
2019-03-28T12:50:12.925Z,12.71
2019-03-28T12:51:12.946Z,12.66
2019-03-28T12:52:12.977Z,12.67
2019-03-28T12:53:13.014Z,12.71